sensor_id;sensor_type;location;lat;lon;timestamp;P1;durP1;ratioP1;P2;durP2;ratioP2
65583;SDS011;62116;43.582;1.470;2022-08-07T00:00:46;4.75;;;1.67;;
65583;SDS011;62116;43.582;1.470;2022-08-07T00:03:11;2.65;;;1.70;;
65583;SDS011;62116;43.582;1.470;2022-08-07T00:05:37;4.28;;;1.90;;
65583;SDS011;62116;43.582;1.470;2022-08-07T00:08:03;4.70;;;2.00;;
65583;SDS011;62116;43.582;1.470;2022-08-07T00:10:29;2.97;;;1.85;;
65583;SDS011;62116;43.582;1.470;2022-08-07T00:12:54;5.90;;;1.63;;
65583;SDS011;62116;43.582;1.470;2022-08-07T00:15:20;4.53;;;1.90;;
65583;SDS011;62116;43.582;1.470;2022-08-07T00:17:46;3.83;;;1.50;;
65583;SDS011;62116;43.582;1.470;2022-08-07T00:20:11;3.60;;;1.80;;
65583;SDS011;62116;43.582;1.470;2022-08-07T00:22:37;6.03;;;1.90;;
65583;SDS011;62116;43.582;1.470;2022-08-07T00:25:03;4.25;;;1.70;;
65583;SDS011;62116;43.582;1.470;2022-08-07T00:27:30;4.47;;;1.70;;
65583;SDS011;62116;43.582;1.470;2022-08-07T00:29:55;2.92;;;1.73;;
65583;SDS011;62116;43.582;1.470;2022-08-07T00:32:21;2.65;;;1.63;;
65583;SDS011;62116;43.582;1.470;2022-08-07T00:34:46;2.58;;;1.45;;
65583;SDS011;62116;43.582;1.470;2022-08-07T00:37:13;3.70;;;1.60;;
65583;SDS011;62116;43.582;1.470;2022-08-07T00:39:40;4.97;;;1.73;;
65583;SDS011;62116;43.582;1.470;2022-08-07T00:42:05;4.47;;;1.65;;
65583;SDS011;62116;43.582;1.470;2022-08-07T00:44:31;4.50;;;1.67;;
65583;SDS011;62116;43.582;1.470;2022-08-07T00:46:57;4.57;;;1.65;;
65583;SDS011;62116;43.582;1.470;2022-08-07T00:49:23;4.03;;;1.60;;
65583;SDS011;62116;43.582;1.470;2022-08-07T00:51:48;3.63;;;1.70;;
65583;SDS011;62116;43.582;1.470;2022-08-07T00:54:13;3.40;;;1.60;;
65583;SDS011;62116;43.582;1.470;2022-08-07T00:56:39;5.22;;;1.90;;
65583;SDS011;62116;43.582;1.470;2022-08-07T00:59:05;5.95;;;1.70;;
65583;SDS011;62116;43.582;1.470;2022-08-07T01:01:30;3.50;;;1.60;;
65583;SDS011;62116;43.582;1.470;2022-08-07T01:03:57;5.70;;;1.80;;
65583;SDS011;62116;43.582;1.470;2022-08-07T01:06:22;4.13;;;1.50;;
65583;SDS011;62116;43.582;1.470;2022-08-07T01:08:48;3.00;;;1.60;;
65583;SDS011;62116;43.582;1.470;2022-08-07T01:11:13;3.13;;;1.60;;
65583;SDS011;62116;43.582;1.470;2022-08-07T01:13:40;4.50;;;1.70;;
65583;SDS011;62116;43.582;1.470;2022-08-07T01:16:06;3.25;;;1.50;;
65583;SDS011;62116;43.582;1.470;2022-08-07T01:18:33;3.85;;;1.70;;
65583;SDS011;62116;43.582;1.470;2022-08-07T01:23:42;3.35;;;1.70;;
65583;SDS011;62116;43.582;1.470;2022-08-07T01:26:10;3.38;;;1.45;;
65583;SDS011;62116;43.582;1.470;2022-08-07T01:28:37;4.68;;;1.70;;
65583;SDS011;62116;43.582;1.470;2022-08-07T01:31:06;3.50;;;1.60;;
65583;SDS011;62116;43.582;1.470;2022-08-07T01:33:32;3.13;;;1.60;;
65583;SDS011;62116;43.582;1.470;2022-08-07T01:35:57;2.85;;;1.58;;
65583;SDS011;62116;43.582;1.470;2022-08-07T01:38:26;2.95;;;1.88;;
65583;SDS011;62116;43.582;1.470;2022-08-07T01:40:59;3.90;;;1.70;;
65583;SDS011;62116;43.582;1.470;2022-08-07T01:43:26;3.60;;;1.65;;
65583;SDS011;62116;43.582;1.470;2022-08-07T01:45:53;4.13;;;1.58;;
65583;SDS011;62116;43.582;1.470;2022-08-07T01:48:20;2.65;;;1.60;;
65583;SDS011;62116;43.582;1.470;2022-08-07T01:50:49;2.70;;;1.65;;
65583;SDS011;62116;43.582;1.470;2022-08-07T01:53:18;3.47;;;1.80;;
65583;SDS011;62116;43.582;1.470;2022-08-07T01:55:50;2.85;;;1.50;;
65583;SDS011;62116;43.582;1.470;2022-08-07T01:58:22;3.63;;;1.63;;
65583;SDS011;62116;43.582;1.470;2022-08-07T02:00:57;4.10;;;1.60;;
65583;SDS011;62116;43.582;1.470;2022-08-07T02:03:24;3.80;;;1.70;;
65583;SDS011;62116;43.582;1.470;2022-08-07T02:05:55;5.45;;;1.65;;
65583;SDS011;62116;43.582;1.470;2022-08-07T02:08:26;4.15;;;1.70;;
65583;SDS011;62116;43.582;1.470;2022-08-07T02:10:53;3.60;;;1.80;;
65583;SDS011;62116;43.582;1.470;2022-08-07T02:13:24;3.58;;;1.80;;
65583;SDS011;62116;43.582;1.470;2022-08-07T02:15:51;6.90;;;1.95;;
65583;SDS011;62116;43.582;1.470;2022-08-07T02:18:18;4.88;;;1.90;;
65583;SDS011;62116;43.582;1.470;2022-08-07T02:20:44;4.05;;;1.90;;
65583;SDS011;62116;43.582;1.470;2022-08-07T02:23:13;3.05;;;1.80;;
65583;SDS011;62116;43.582;1.470;2022-08-07T02:25:40;3.67;;;1.80;;
65583;SDS011;62116;43.582;1.470;2022-08-07T02:28:06;4.20;;;1.95;;
65583;SDS011;62116;43.582;1.470;2022-08-07T02:30:36;4.65;;;2.10;;
65583;SDS011;62116;43.582;1.470;2022-08-07T02:33:03;5.60;;;2.30;;
65583;SDS011;62116;43.582;1.470;2022-08-07T02:35:31;5.40;;;2.20;;
65583;SDS011;62116;43.582;1.470;2022-08-07T02:37:58;3.53;;;2.10;;
65583;SDS011;62116;43.582;1.470;2022-08-07T02:40:26;6.18;;;2.00;;
65583;SDS011;62116;43.582;1.470;2022-08-07T02:42:52;4.05;;;1.80;;
65583;SDS011;62116;43.582;1.470;2022-08-07T02:45:18;2.88;;;1.80;;
65583;SDS011;62116;43.582;1.470;2022-08-07T02:47:46;5.18;;;2.10;;
65583;SDS011;62116;43.582;1.470;2022-08-07T02:50:12;5.57;;;2.03;;
65583;SDS011;62116;43.582;1.470;2022-08-07T02:52:43;4.70;;;2.20;;
65583;SDS011;62116;43.582;1.470;2022-08-07T02:55:20;3.55;;;2.00;;
65583;SDS011;62116;43.582;1.470;2022-08-07T02:57:47;4.22;;;2.08;;
65583;SDS011;62116;43.582;1.470;2022-08-07T03:00:15;3.40;;;2.00;;
65583;SDS011;62116;43.582;1.470;2022-08-07T03:02:42;3.08;;;2.10;;
65583;SDS011;62116;43.582;1.470;2022-08-07T03:05:13;5.60;;;2.00;;
65583;SDS011;62116;43.582;1.470;2022-08-07T03:07:40;3.65;;;2.20;;
65583;SDS011;62116;43.582;1.470;2022-08-07T03:10:07;8.95;;;2.13;;
65583;SDS011;62116;43.582;1.470;2022-08-07T03:12:33;3.75;;;2.10;;
65583;SDS011;62116;43.582;1.470;2022-08-07T03:14:59;3.67;;;2.00;;
65583;SDS011;62116;43.582;1.470;2022-08-07T03:17:25;5.22;;;2.10;;
65583;SDS011;62116;43.582;1.470;2022-08-07T03:19:51;7.82;;;2.33;;
65583;SDS011;62116;43.582;1.470;2022-08-07T03:22:18;3.03;;;1.88;;
65583;SDS011;62116;43.582;1.470;2022-08-07T03:24:44;4.13;;;2.00;;
65583;SDS011;62116;43.582;1.470;2022-08-07T03:27:11;5.60;;;2.03;;
65583;SDS011;62116;43.582;1.470;2022-08-07T03:29:38;5.10;;;2.28;;
65583;SDS011;62116;43.582;1.470;2022-08-07T03:32:07;4.80;;;2.20;;
65583;SDS011;62116;43.582;1.470;2022-08-07T03:34:35;6.27;;;2.03;;
65583;SDS011;62116;43.582;1.470;2022-08-07T03:37:03;5.28;;;2.20;;
65583;SDS011;62116;43.582;1.470;2022-08-07T03:39:30;3.03;;;2.03;;
65583;SDS011;62116;43.582;1.470;2022-08-07T03:41:59;5.87;;;2.20;;
65583;SDS011;62116;43.582;1.470;2022-08-07T03:44:28;4.88;;;2.10;;
65583;SDS011;62116;43.582;1.470;2022-08-07T03:46:54;3.55;;;2.00;;
65583;SDS011;62116;43.582;1.470;2022-08-07T03:49:19;4.47;;;2.08;;
65583;SDS011;62116;43.582;1.470;2022-08-07T03:51:45;4.72;;;2.25;;
65583;SDS011;62116;43.582;1.470;2022-08-07T03:54:12;3.75;;;2.05;;
65583;SDS011;62116;43.582;1.470;2022-08-07T03:56:37;3.88;;;2.30;;
65583;SDS011;62116;43.582;1.470;2022-08-07T03:59:05;4.72;;;2.22;;
65583;SDS011;62116;43.582;1.470;2022-08-07T04:01:30;4.47;;;2.10;;
65583;SDS011;62116;43.582;1.470;2022-08-07T04:03:58;3.92;;;2.10;;
65583;SDS011;62116;43.582;1.470;2022-08-07T04:06:23;3.83;;;1.73;;
65583;SDS011;62116;43.582;1.470;2022-08-07T04:08:50;5.45;;;2.20;;
65583;SDS011;62116;43.582;1.470;2022-08-07T04:11:16;3.20;;;1.98;;
65583;SDS011;62116;43.582;1.470;2022-08-07T04:13:42;5.18;;;2.13;;
65583;SDS011;62116;43.582;1.470;2022-08-07T04:16:09;6.03;;;2.20;;
65583;SDS011;62116;43.582;1.470;2022-08-07T04:18:34;6.22;;;1.98;;
65583;SDS011;62116;43.582;1.470;2022-08-07T04:21:00;3.45;;;1.90;;
65583;SDS011;62116;43.582;1.470;2022-08-07T04:23:26;4.55;;;2.17;;
65583;SDS011;62116;43.582;1.470;2022-08-07T04:25:51;4.25;;;1.92;;
65583;SDS011;62116;43.582;1.470;2022-08-07T04:28:17;4.75;;;1.95;;
65583;SDS011;62116;43.582;1.470;2022-08-07T04:30:46;4.25;;;1.80;;
65583;SDS011;62116;43.582;1.470;2022-08-07T04:33:13;4.82;;;2.00;;
65583;SDS011;62116;43.582;1.470;2022-08-07T04:35:39;5.13;;;2.05;;
65583;SDS011;62116;43.582;1.470;2022-08-07T04:38:08;4.03;;;1.90;;
65583;SDS011;62116;43.582;1.470;2022-08-07T04:40:36;5.90;;;1.98;;
65583;SDS011;62116;43.582;1.470;2022-08-07T04:43:04;4.30;;;2.50;;
65583;SDS011;62116;43.582;1.470;2022-08-07T04:45:35;6.43;;;2.20;;
65583;SDS011;62116;43.582;1.470;2022-08-07T04:48:07;4.25;;;2.20;;
65583;SDS011;62116;43.582;1.470;2022-08-07T04:50:37;5.57;;;2.10;;
65583;SDS011;62116;43.582;1.470;2022-08-07T04:53:55;3.10;;;1.85;;
65583;SDS011;62116;43.582;1.470;2022-08-07T04:55:58;4.20;;;2.00;;
65583;SDS011;62116;43.582;1.470;2022-08-07T05:04:17;6.13;;;2.10;;
65583;SDS011;62116;43.582;1.470;2022-08-07T05:09:28;5.03;;;1.90;;
65583;SDS011;62116;43.582;1.470;2022-08-07T05:12:02;5.45;;;2.00;;
65583;SDS011;62116;43.582;1.470;2022-08-07T05:14:37;4.43;;;2.10;;
65583;SDS011;62116;43.582;1.470;2022-08-07T05:17:14;9.43;;;2.22;;
65583;SDS011;62116;43.582;1.470;2022-08-07T05:19:49;3.33;;;1.95;;
65583;SDS011;62116;43.582;1.470;2022-08-07T05:22:18;5.32;;;2.10;;
65583;SDS011;62116;43.582;1.470;2022-08-07T05:24:46;6.82;;;1.90;;
65583;SDS011;62116;43.582;1.470;2022-08-07T05:27:15;4.63;;;1.88;;
65583;SDS011;62116;43.582;1.470;2022-08-07T05:29:42;3.72;;;1.92;;
65583;SDS011;62116;43.582;1.470;2022-08-07T05:32:10;3.80;;;2.20;;
65583;SDS011;62116;43.582;1.470;2022-08-07T05:34:37;5.05;;;1.98;;
65583;SDS011;62116;43.582;1.470;2022-08-07T05:37:05;4.20;;;2.20;;
65583;SDS011;62116;43.582;1.470;2022-08-07T05:39:31;3.80;;;1.85;;
65583;SDS011;62116;43.582;1.470;2022-08-07T05:41:59;5.82;;;1.92;;
65583;SDS011;62116;43.582;1.470;2022-08-07T05:44:24;3.95;;;1.95;;
65583;SDS011;62116;43.582;1.470;2022-08-07T05:46:50;5.55;;;2.03;;
65583;SDS011;62116;43.582;1.470;2022-08-07T05:49:16;7.35;;;2.22;;
65583;SDS011;62116;43.582;1.470;2022-08-07T05:51:44;5.10;;;1.90;;
65583;SDS011;62116;43.582;1.470;2022-08-07T05:54:10;4.10;;;1.90;;
65583;SDS011;62116;43.582;1.470;2022-08-07T05:56:36;4.22;;;2.20;;
65583;SDS011;62116;43.582;1.470;2022-08-07T05:59:04;5.90;;;2.10;;
65583;SDS011;62116;43.582;1.470;2022-08-07T06:01:34;4.20;;;1.63;;
65583;SDS011;62116;43.582;1.470;2022-08-07T06:04:00;5.28;;;2.00;;
65583;SDS011;62116;43.582;1.470;2022-08-07T06:06:29;4.18;;;1.90;;
65583;SDS011;62116;43.582;1.470;2022-08-07T06:08:58;4.75;;;2.03;;
65583;SDS011;62116;43.582;1.470;2022-08-07T06:11:25;3.55;;;1.98;;
65583;SDS011;62116;43.582;1.470;2022-08-07T06:13:50;5.97;;;2.08;;
65583;SDS011;62116;43.582;1.470;2022-08-07T06:16:16;6.40;;;2.20;;
65583;SDS011;62116;43.582;1.470;2022-08-07T06:18:43;7.25;;;1.75;;
65583;SDS011;62116;43.582;1.470;2022-08-07T06:21:09;4.90;;;2.08;;
65583;SDS011;62116;43.582;1.470;2022-08-07T06:23:35;3.35;;;1.67;;
65583;SDS011;62116;43.582;1.470;2022-08-07T06:26:01;4.80;;;1.80;;
65583;SDS011;62116;43.582;1.470;2022-08-07T06:28:28;3.25;;;2.00;;
65583;SDS011;62116;43.582;1.470;2022-08-07T06:30:54;3.47;;;2.08;;
65583;SDS011;62116;43.582;1.470;2022-08-07T06:33:20;3.75;;;2.00;;
65583;SDS011;62116;43.582;1.470;2022-08-07T06:35:46;3.58;;;2.10;;
65583;SDS011;62116;43.582;1.470;2022-08-07T06:38:12;5.88;;;2.05;;
65583;SDS011;62116;43.582;1.470;2022-08-07T06:40:50;4.28;;;1.80;;
65583;SDS011;62116;43.582;1.470;2022-08-07T06:43:19;3.85;;;2.05;;
65583;SDS011;62116;43.582;1.470;2022-08-07T06:45:46;3.67;;;1.80;;
65583;SDS011;62116;43.582;1.470;2022-08-07T06:48:12;4.95;;;1.80;;
65583;SDS011;62116;43.582;1.470;2022-08-07T06:50:38;5.05;;;1.73;;
65583;SDS011;62116;43.582;1.470;2022-08-07T06:53:06;6.18;;;1.75;;
65583;SDS011;62116;43.582;1.470;2022-08-07T06:55:32;3.75;;;1.77;;
65583;SDS011;62116;43.582;1.470;2022-08-07T06:58:01;2.85;;;1.60;;
65583;SDS011;62116;43.582;1.470;2022-08-07T07:00:30;3.25;;;1.60;;
65583;SDS011;62116;43.582;1.470;2022-08-07T07:02:57;2.67;;;1.77;;
65583;SDS011;62116;43.582;1.470;2022-08-07T07:05:23;5.68;;;1.52;;
65583;SDS011;62116;43.582;1.470;2022-08-07T07:07:49;5.55;;;1.65;;
65583;SDS011;62116;43.582;1.470;2022-08-07T07:10:14;4.65;;;2.00;;
65583;SDS011;62116;43.582;1.470;2022-08-07T07:12:51;3.05;;;1.55;;
65583;SDS011;62116;43.582;1.470;2022-08-07T07:15:25;4.03;;;1.60;;
65583;SDS011;62116;43.582;1.470;2022-08-07T07:20:32;3.92;;;1.63;;
65583;SDS011;62116;43.582;1.470;2022-08-07T07:23:01;4.85;;;1.50;;
65583;SDS011;62116;43.582;1.470;2022-08-07T07:25:27;3.38;;;1.48;;
65583;SDS011;62116;43.582;1.470;2022-08-07T07:30:23;2.92;;;1.70;;
65583;SDS011;62116;43.582;1.470;2022-08-07T07:32:53;2.95;;;1.75;;
65583;SDS011;62116;43.582;1.470;2022-08-07T07:35:20;4.57;;;1.60;;
65583;SDS011;62116;43.582;1.470;2022-08-07T07:37:48;4.82;;;1.80;;
65583;SDS011;62116;43.582;1.470;2022-08-07T07:40:17;4.65;;;1.70;;
65583;SDS011;62116;43.582;1.470;2022-08-07T07:42:44;5.65;;;1.90;;
65583;SDS011;62116;43.582;1.470;2022-08-07T07:45:12;3.80;;;1.80;;
65583;SDS011;62116;43.582;1.470;2022-08-07T07:47:40;3.90;;;1.70;;
65583;SDS011;62116;43.582;1.470;2022-08-07T07:50:12;4.05;;;1.67;;
65583;SDS011;62116;43.582;1.470;2022-08-07T07:52:40;4.30;;;1.80;;
65583;SDS011;62116;43.582;1.470;2022-08-07T07:55:07;3.70;;;1.80;;
65583;SDS011;62116;43.582;1.470;2022-08-07T07:57:34;4.15;;;1.58;;
65583;SDS011;62116;43.582;1.470;2022-08-07T08:00:00;3.17;;;1.67;;
65583;SDS011;62116;43.582;1.470;2022-08-07T08:02:26;4.75;;;1.63;;
65583;SDS011;62116;43.582;1.470;2022-08-07T08:04:53;4.20;;;1.80;;
65583;SDS011;62116;43.582;1.470;2022-08-07T08:07:20;2.70;;;1.50;;
65583;SDS011;62116;43.582;1.470;2022-08-07T08:09:50;7.18;;;1.70;;
65583;SDS011;62116;43.582;1.470;2022-08-07T08:12:17;3.70;;;1.60;;
65583;SDS011;62116;43.582;1.470;2022-08-07T08:14:43;6.80;;;1.60;;
65583;SDS011;62116;43.582;1.470;2022-08-07T08:17:09;4.50;;;1.58;;
65583;SDS011;62116;43.582;1.470;2022-08-07T08:19:37;5.38;;;1.73;;
65583;SDS011;62116;43.582;1.470;2022-08-07T08:22:05;3.17;;;1.60;;
65583;SDS011;62116;43.582;1.470;2022-08-07T08:24:52;2.33;;;1.42;;
65583;SDS011;62116;43.582;1.470;2022-08-07T08:27:38;4.80;;;1.40;;
65583;SDS011;62116;43.582;1.470;2022-08-07T08:30:06;2.90;;;1.67;;
65583;SDS011;62116;43.582;1.470;2022-08-07T08:32:42;6.57;;;1.92;;
65583;SDS011;62116;43.582;1.470;2022-08-07T08:35:12;4.72;;;1.60;;
65583;SDS011;62116;43.582;1.470;2022-08-07T08:37:43;5.88;;;1.63;;
65583;SDS011;62116;43.582;1.470;2022-08-07T08:40:14;3.90;;;1.80;;
65583;SDS011;62116;43.582;1.470;2022-08-07T08:42:51;3.88;;;1.70;;
65583;SDS011;62116;43.582;1.470;2022-08-07T08:50:42;5.32;;;1.70;;
65583;SDS011;62116;43.582;1.470;2022-08-07T08:53:21;3.55;;;1.60;;
65583;SDS011;62116;43.582;1.470;2022-08-07T08:55:52;4.00;;;1.77;;
65583;SDS011;62116;43.582;1.470;2022-08-07T09:01:09;3.97;;;1.75;;
65583;SDS011;62116;43.582;1.470;2022-08-07T09:03:55;3.75;;;1.83;;
65583;SDS011;62116;43.582;1.470;2022-08-07T09:10:23;4.75;;;1.70;;
65583;SDS011;62116;43.582;1.470;2022-08-07T09:15:14;3.88;;;1.70;;
65583;SDS011;62116;43.582;1.470;2022-08-07T09:29:38;5.45;;;1.60;;
65583;SDS011;62116;43.582;1.470;2022-08-07T09:32:25;4.53;;;1.80;;
65583;SDS011;62116;43.582;1.470;2022-08-07T09:35:02;4.70;;;1.70;;
65583;SDS011;62116;43.582;1.470;2022-08-07T09:46:03;4.30;;;1.80;;
65583;SDS011;62116;43.582;1.470;2022-08-07T09:48:53;2.88;;;1.65;;
65583;SDS011;62116;43.582;1.470;2022-08-07T09:51:37;2.67;;;1.60;;
65583;SDS011;62116;43.582;1.470;2022-08-07T09:54:42;4.60;;;1.50;;
65583;SDS011;62116;43.582;1.470;2022-08-07T10:10:39;2.67;;;1.70;;
65583;SDS011;62116;43.582;1.470;2022-08-07T10:16:49;5.38;;;1.90;;
65583;SDS011;62116;43.582;1.470;2022-08-07T10:21:23;3.05;;;1.50;;
65583;SDS011;62116;43.582;1.470;2022-08-07T10:27:00;3.10;;;1.65;;
65583;SDS011;62116;43.582;1.470;2022-08-07T10:38:01;5.03;;;1.60;;
65583;SDS011;62116;43.582;1.470;2022-08-07T10:40:47;2.45;;;1.50;;
65583;SDS011;62116;43.582;1.470;2022-08-07T10:43:20;4.50;;;1.60;;
65583;SDS011;62116;43.582;1.470;2022-08-07T10:45:57;5.00;;;1.30;;
65583;SDS011;62116;43.582;1.470;2022-08-07T11:00:02;6.35;;;1.67;;
65583;SDS011;62116;43.582;1.470;2022-08-07T11:05:13;2.90;;;1.70;;
65583;SDS011;62116;43.582;1.470;2022-08-07T11:10:40;3.72;;;1.60;;
65583;SDS011;62116;43.582;1.470;2022-08-07T11:15:37;3.65;;;1.45;;
65583;SDS011;62116;43.582;1.470;2022-08-07T11:18:09;3.05;;;1.65;;
65583;SDS011;62116;43.582;1.470;2022-08-07T11:20:45;3.05;;;1.60;;
65583;SDS011;62116;43.582;1.470;2022-08-07T11:23:17;3.67;;;1.60;;
65583;SDS011;62116;43.582;1.470;2022-08-07T11:25:57;5.85;;;1.60;;
65583;SDS011;62116;43.582;1.470;2022-08-07T11:28:34;2.60;;;1.67;;
65583;SDS011;62116;43.582;1.470;2022-08-07T11:36:46;3.92;;;1.70;;
65583;SDS011;62116;43.582;1.470;2022-08-07T11:41:54;5.50;;;1.48;;
65583;SDS011;62116;43.582;1.470;2022-08-07T11:44:35;6.65;;;1.65;;
65583;SDS011;62116;43.582;1.470;2022-08-07T12:01:08;3.05;;;1.60;;
65583;SDS011;62116;43.582;1.470;2022-08-07T12:03:52;3.85;;;1.50;;
65583;SDS011;62116;43.582;1.470;2022-08-07T12:06:45;3.10;;;1.70;;
65583;SDS011;62116;43.582;1.470;2022-08-07T12:09:18;3.55;;;1.50;;
65583;SDS011;62116;43.582;1.470;2022-08-07T12:20:27;3.80;;;1.70;;
65583;SDS011;62116;43.582;1.470;2022-08-07T12:31:28;3.42;;;1.52;;
65583;SDS011;62116;43.582;1.470;2022-08-07T12:34:00;3.28;;;1.48;;
65583;SDS011;62116;43.582;1.470;2022-08-07T12:36:27;3.65;;;1.60;;
65583;SDS011;62116;43.582;1.470;2022-08-07T12:38:54;3.30;;;1.50;;
65583;SDS011;62116;43.582;1.470;2022-08-07T12:41:24;3.58;;;1.40;;
65583;SDS011;62116;43.582;1.470;2022-08-07T12:43:51;5.20;;;1.42;;
65583;SDS011;62116;43.582;1.470;2022-08-07T12:51:53;3.70;;;1.40;;
65583;SDS011;62116;43.582;1.470;2022-08-07T12:54:55;2.47;;;1.45;;
65583;SDS011;62116;43.582;1.470;2022-08-07T12:57:28;1.75;;;1.25;;
65583;SDS011;62116;43.582;1.470;2022-08-07T12:59:55;2.85;;;1.40;;
65583;SDS011;62116;43.582;1.470;2022-08-07T13:02:28;3.40;;;1.38;;
65583;SDS011;62116;43.582;1.470;2022-08-07T13:10:21;3.05;;;1.50;;
65583;SDS011;62116;43.582;1.470;2022-08-07T13:13:03;2.85;;;1.30;;
65583;SDS011;62116;43.582;1.470;2022-08-07T13:21:37;3.90;;;1.55;;
65583;SDS011;62116;43.582;1.470;2022-08-07T13:24:22;3.35;;;1.38;;
65583;SDS011;62116;43.582;1.470;2022-08-07T13:27:25;3.85;;;1.40;;
65583;SDS011;62116;43.582;1.470;2022-08-07T13:32:24;1.80;;;1.40;;
65583;SDS011;62116;43.582;1.470;2022-08-07T13:37:36;1.70;;;1.27;;
65583;SDS011;62116;43.582;1.470;2022-08-07T13:42:51;2.80;;;1.50;;
65583;SDS011;62116;43.582;1.470;2022-08-07T13:45:21;4.43;;;1.48;;
65583;SDS011;62116;43.582;1.470;2022-08-07T13:47:50;4.10;;;1.70;;
65583;SDS011;62116;43.582;1.470;2022-08-07T13:50:18;5.30;;;1.60;;
65583;SDS011;62116;43.582;1.470;2022-08-07T13:52:46;2.97;;;1.50;;
65583;SDS011;62116;43.582;1.470;2022-08-07T13:55:18;4.30;;;1.63;;
65583;SDS011;62116;43.582;1.470;2022-08-07T13:57:45;2.53;;;1.40;;
65583;SDS011;62116;43.582;1.470;2022-08-07T14:00:16;2.72;;;1.35;;
65583;SDS011;62116;43.582;1.470;2022-08-07T14:02:43;3.28;;;1.45;;
65583;SDS011;62116;43.582;1.470;2022-08-07T14:05:12;4.43;;;1.55;;
65583;SDS011;62116;43.582;1.470;2022-08-07T14:07:41;4.63;;;1.55;;
65583;SDS011;62116;43.582;1.470;2022-08-07T14:10:09;4.60;;;1.55;;
65583;SDS011;62116;43.582;1.470;2022-08-07T14:15:15;5.70;;;1.50;;
65583;SDS011;62116;43.582;1.470;2022-08-07T14:17:43;4.47;;;1.38;;
65583;SDS011;62116;43.582;1.470;2022-08-07T14:20:15;4.38;;;1.38;;
65583;SDS011;62116;43.582;1.470;2022-08-07T14:22:46;5.00;;;1.67;;
65583;SDS011;62116;43.582;1.470;2022-08-07T14:25:15;4.72;;;1.60;;
65583;SDS011;62116;43.582;1.470;2022-08-07T14:27:42;2.58;;;1.50;;
65583;SDS011;62116;43.582;1.470;2022-08-07T14:30:11;3.75;;;1.70;;
65583;SDS011;62116;43.582;1.470;2022-08-07T14:35:10;3.47;;;1.60;;
65583;SDS011;62116;43.582;1.470;2022-08-07T14:37:41;2.92;;;1.48;;
65583;SDS011;62116;43.582;1.470;2022-08-07T14:40:12;3.85;;;1.50;;
65583;SDS011;62116;43.582;1.470;2022-08-07T14:42:38;6.35;;;1.50;;
65583;SDS011;62116;43.582;1.470;2022-08-07T14:45:05;2.03;;;1.38;;
65583;SDS011;62116;43.582;1.470;2022-08-07T14:50:04;4.22;;;1.50;;
65583;SDS011;62116;43.582;1.470;2022-08-07T14:54:58;2.63;;;1.40;;
65583;SDS011;62116;43.582;1.470;2022-08-07T14:57:25;3.60;;;1.60;;
65583;SDS011;62116;43.582;1.470;2022-08-07T14:59:53;2.20;;;1.30;;
65583;SDS011;62116;43.582;1.470;2022-08-07T15:02:22;2.60;;;1.50;;
65583;SDS011;62116;43.582;1.470;2022-08-07T15:04:50;4.60;;;1.38;;
65583;SDS011;62116;43.582;1.470;2022-08-07T15:07:17;3.72;;;1.50;;
65583;SDS011;62116;43.582;1.470;2022-08-07T15:09:46;2.97;;;1.42;;
65583;SDS011;62116;43.582;1.470;2022-08-07T15:12:23;2.05;;;1.30;;
65583;SDS011;62116;43.582;1.470;2022-08-07T15:14:53;3.67;;;1.40;;
65583;SDS011;62116;43.582;1.470;2022-08-07T15:17:31;2.28;;;1.30;;
65583;SDS011;62116;43.582;1.470;2022-08-07T15:20:06;2.83;;;1.42;;
65583;SDS011;62116;43.582;1.470;2022-08-07T15:23:08;3.60;;;1.30;;
65583;SDS011;62116;43.582;1.470;2022-08-07T15:25:30;2.95;;;1.40;;
65583;SDS011;62116;43.582;1.470;2022-08-07T15:27:59;2.97;;;1.40;;
65583;SDS011;62116;43.582;1.470;2022-08-07T15:30:26;2.28;;;1.35;;
65583;SDS011;62116;43.582;1.470;2022-08-07T15:32:53;3.65;;;1.50;;
65583;SDS011;62116;43.582;1.470;2022-08-07T15:35:21;2.38;;;1.30;;
65583;SDS011;62116;43.582;1.470;2022-08-07T15:37:50;2.55;;;1.40;;
65583;SDS011;62116;43.582;1.470;2022-08-07T15:40:18;2.50;;;1.47;;
65583;SDS011;62116;43.582;1.470;2022-08-07T15:42:46;2.53;;;1.42;;
65583;SDS011;62116;43.582;1.470;2022-08-07T15:45:37;2.47;;;1.48;;
65583;SDS011;62116;43.582;1.470;2022-08-07T15:48:04;2.67;;;1.52;;
65583;SDS011;62116;43.582;1.470;2022-08-07T15:50:34;1.70;;;1.25;;
65583;SDS011;62116;43.582;1.470;2022-08-07T15:53:07;3.38;;;1.30;;
65583;SDS011;62116;43.582;1.470;2022-08-07T15:55:43;2.70;;;1.30;;
65583;SDS011;62116;43.582;1.470;2022-08-07T15:58:12;4.38;;;1.25;;
65583;SDS011;62116;43.582;1.470;2022-08-07T16:00:40;4.10;;;1.27;;
65583;SDS011;62116;43.582;1.470;2022-08-07T16:03:13;3.00;;;1.55;;
65583;SDS011;62116;43.582;1.470;2022-08-07T16:05:44;2.15;;;1.48;;
65583;SDS011;62116;43.582;1.470;2022-08-07T16:08:14;3.28;;;1.40;;
65583;SDS011;62116;43.582;1.470;2022-08-07T16:10:42;3.55;;;1.25;;
65583;SDS011;62116;43.582;1.470;2022-08-07T16:15:44;2.22;;;1.35;;
65583;SDS011;62116;43.582;1.470;2022-08-07T16:18:26;3.67;;;1.48;;
65583;SDS011;62116;43.582;1.470;2022-08-07T16:21:11;2.15;;;1.30;;
65583;SDS011;62116;43.582;1.470;2022-08-07T16:32:18;2.63;;;1.40;;
65583;SDS011;62116;43.582;1.470;2022-08-07T16:35:04;4.00;;;1.33;;
65583;SDS011;62116;43.582;1.470;2022-08-07T16:43:34;2.60;;;1.30;;
65583;SDS011;62116;43.582;1.470;2022-08-07T16:54:57;3.17;;;1.40;;
65583;SDS011;62116;43.582;1.470;2022-08-07T17:03:54;2.58;;;1.42;;
65583;SDS011;62116;43.582;1.470;2022-08-07T17:09:08;3.58;;;1.50;;
65583;SDS011;62116;43.582;1.470;2022-08-07T17:11:47;2.38;;;1.27;;
65583;SDS011;62116;43.582;1.470;2022-08-07T17:15:03;4.32;;;1.30;;
65583;SDS011;62116;43.582;1.470;2022-08-07T17:19:57;2.55;;;1.25;;
65583;SDS011;62116;43.582;1.470;2022-08-07T17:23:09;1.70;;;1.20;;
65583;SDS011;62116;43.582;1.470;2022-08-07T17:25:22;3.05;;;1.33;;
65583;SDS011;62116;43.582;1.470;2022-08-07T17:31:38;2.17;;;1.40;;
65583;SDS011;62116;43.582;1.470;2022-08-07T17:33:37;3.45;;;1.58;;
65583;SDS011;62116;43.582;1.470;2022-08-07T17:36:23;2.92;;;1.30;;
65583;SDS011;62116;43.582;1.470;2022-08-07T17:41:58;2.67;;;1.35;;
65583;SDS011;62116;43.582;1.470;2022-08-07T17:44:41;2.97;;;1.60;;
65583;SDS011;62116;43.582;1.470;2022-08-07T17:47:16;2.80;;;1.48;;
65583;SDS011;62116;43.582;1.470;2022-08-07T17:50:02;5.07;;;1.30;;
65583;SDS011;62116;43.582;1.470;2022-08-07T17:52:36;2.60;;;1.20;;
65583;SDS011;62116;43.582;1.470;2022-08-07T17:57:40;1.95;;;1.10;;
65583;SDS011;62116;43.582;1.470;2022-08-07T18:00:26;2.10;;;1.20;;
65583;SDS011;62116;43.582;1.470;2022-08-07T18:02:54;2.40;;;1.10;;
65583;SDS011;62116;43.582;1.470;2022-08-07T18:05:27;2.00;;;1.13;;
65583;SDS011;62116;43.582;1.470;2022-08-07T18:16:16;3.60;;;1.20;;
65583;SDS011;62116;43.582;1.470;2022-08-07T18:18:56;2.90;;;1.20;;
65583;SDS011;62116;43.582;1.470;2022-08-07T18:21:32;2.25;;;1.20;;
65583;SDS011;62116;43.582;1.470;2022-08-07T18:32:15;1.98;;;1.20;;
65583;SDS011;62116;43.582;1.470;2022-08-07T18:46:20;2.90;;;1.10;;
65583;SDS011;62116;43.582;1.470;2022-08-07T18:56:50;3.15;;;1.40;;
65583;SDS011;62116;43.582;1.470;2022-08-07T19:10:36;1.90;;;1.25;;
65583;SDS011;62116;43.582;1.470;2022-08-07T19:12:43;5.43;;;1.30;;
65583;SDS011;62116;43.582;1.470;2022-08-07T19:15:31;3.50;;;1.35;;
65583;SDS011;62116;43.582;1.470;2022-08-07T19:18:21;2.67;;;1.23;;
65583;SDS011;62116;43.582;1.470;2022-08-07T19:20:58;2.20;;;1.50;;
65583;SDS011;62116;43.582;1.470;2022-08-07T19:23:32;5.13;;;1.40;;
65583;SDS011;62116;43.582;1.470;2022-08-07T19:26:03;2.17;;;1.40;;
65583;SDS011;62116;43.582;1.470;2022-08-07T19:28:33;3.45;;;1.35;;
65583;SDS011;62116;43.582;1.470;2022-08-07T19:31:28;5.10;;;1.50;;
65583;SDS011;62116;43.582;1.470;2022-08-07T19:33:54;3.85;;;1.33;;
65583;SDS011;62116;43.582;1.470;2022-08-07T19:36:21;3.67;;;1.40;;